sensor_id;sensor_type;location;lat;lon;timestamp;P1;durP1;ratioP1;P2;durP2;ratioP2
27857;SDS011;16852;51.446;6.528;2023-04-01T00:00:41;1.15;;;0.70;;
27857;SDS011;16852;51.446;6.528;2023-04-01T00:02:44;9.45;;;1.25;;
27857;SDS011;16852;51.446;6.528;2023-04-01T00:04:44;3.28;;;1.13;;
27857;SDS011;16852;51.446;6.528;2023-04-01T00:06:45;5.55;;;1.10;;
27857;SDS011;16852;51.446;6.528;2023-04-01T00:08:47;6.17;;;1.30;;
27857;SDS011;16852;51.446;6.528;2023-04-01T00:10:48;3.42;;;1.00;;
27857;SDS011;16852;51.446;6.528;2023-04-01T00:12:49;3.60;;;1.00;;
27857;SDS011;16852;51.446;6.528;2023-04-01T00:14:50;2.63;;;1.20;;
27857;SDS011;16852;51.446;6.528;2023-04-01T00:16:50;4.50;;;1.45;;
27857;SDS011;16852;51.446;6.528;2023-04-01T00:18:52;4.07;;;1.30;;
27857;SDS011;16852;51.446;6.528;2023-04-01T00:20:52;4.00;;;1.20;;
27857;SDS011;16852;51.446;6.528;2023-04-01T00:22:53;3.03;;;1.08;;
27857;SDS011;16852;51.446;6.528;2023-04-01T00:24:54;3.97;;;0.93;;
27857;SDS011;16852;51.446;6.528;2023-04-01T00:26:55;3.38;;;1.10;;
27857;SDS011;16852;51.446;6.528;2023-04-01T00:28:56;2.28;;;0.77;;
27857;SDS011;16852;51.446;6.528;2023-04-01T00:30:56;4.60;;;1.15;;
27857;SDS011;16852;51.446;6.528;2023-04-01T00:32:57;1.58;;;0.50;;
27857;SDS011;16852;51.446;6.528;2023-04-01T00:34:57;2.80;;;0.90;;
27857;SDS011;16852;51.446;6.528;2023-04-01T00:37:00;5.20;;;0.90;;
27857;SDS011;16852;51.446;6.528;2023-04-01T00:39:01;3.95;;;1.10;;
27857;SDS011;16852;51.446;6.528;2023-04-01T00:41:02;2.72;;;0.75;;
27857;SDS011;16852;51.446;6.528;2023-04-01T00:43:03;2.58;;;0.77;;
27857;SDS011;16852;51.446;6.528;2023-04-01T00:45:30;4.88;;;1.30;;
27857;SDS011;16852;51.446;6.528;2023-04-01T00:47:34;2.20;;;0.82;;
27857;SDS011;16852;51.446;6.528;2023-04-01T00:49:42;2.53;;;1.25;;
27857;SDS011;16852;51.446;6.528;2023-04-01T00:51:46;2.67;;;1.02;;
27857;SDS011;16852;51.446;6.528;2023-04-01T00:53:51;2.30;;;0.68;;
27857;SDS011;16852;51.446;6.528;2023-04-01T00:56:04;2.25;;;0.60;;
27857;SDS011;16852;51.446;6.528;2023-04-01T00:58:13;2.53;;;0.75;;
27857;SDS011;16852;51.446;6.528;2023-04-01T01:00:17;4.88;;;0.73;;
27857;SDS011;16852;51.446;6.528;2023-04-01T01:02:18;5.80;;;1.13;;
27857;SDS011;16852;51.446;6.528;2023-04-01T01:04:27;2.55;;;0.77;;
27857;SDS011;16852;51.446;6.528;2023-04-01T01:06:44;3.00;;;0.80;;
27857;SDS011;16852;51.446;6.528;2023-04-01T01:10:58;3.35;;;0.68;;
27857;SDS011;16852;51.446;6.528;2023-04-01T01:13:03;4.53;;;0.90;;
27857;SDS011;16852;51.446;6.528;2023-04-01T01:17:48;1.35;;;0.60;;
27857;SDS011;16852;51.446;6.528;2023-04-01T01:20:16;1.77;;;0.60;;
27857;SDS011;16852;51.446;6.528;2023-04-01T01:27:25;1.83;;;0.80;;
27857;SDS011;16852;51.446;6.528;2023-04-01T01:34:02;2.03;;;0.73;;
27857;SDS011;16852;51.446;6.528;2023-04-01T01:36:28;2.47;;;0.82;;
27857;SDS011;16852;51.446;6.528;2023-04-01T01:38:34;1.67;;;0.70;;
27857;SDS011;16852;51.446;6.528;2023-04-01T01:40:35;1.77;;;0.70;;
27857;SDS011;16852;51.446;6.528;2023-04-01T01:42:42;3.42;;;0.63;;
27857;SDS011;16852;51.446;6.528;2023-04-01T01:44:47;1.83;;;0.90;;
27857;SDS011;16852;51.446;6.528;2023-04-01T01:48:50;2.10;;;0.73;;
27857;SDS011;16852;51.446;6.528;2023-04-01T01:50:52;2.42;;;0.65;;
27857;SDS011;16852;51.446;6.528;2023-04-01T01:53:00;2.38;;;0.47;;
27857;SDS011;16852;51.446;6.528;2023-04-01T01:55:22;1.45;;;0.50;;
27857;SDS011;16852;51.446;6.528;2023-04-01T01:57:34;2.22;;;0.50;;
27857;SDS011;16852;51.446;6.528;2023-04-01T01:59:38;0.80;;;0.40;;
27857;SDS011;16852;51.446;6.528;2023-04-01T02:01:41;2.08;;;0.65;;
27857;SDS011;16852;51.446;6.528;2023-04-01T02:03:45;3.00;;;0.73;;
27857;SDS011;16852;51.446;6.528;2023-04-01T02:05:48;2.97;;;0.82;;
27857;SDS011;16852;51.446;6.528;2023-04-01T02:07:53;1.55;;;0.60;;
27857;SDS011;16852;51.446;6.528;2023-04-01T02:10:01;1.52;;;0.60;;
27857;SDS011;16852;51.446;6.528;2023-04-01T02:12:04;2.83;;;0.68;;
27857;SDS011;16852;51.446;6.528;2023-04-01T02:14:11;1.50;;;0.60;;
27857;SDS011;16852;51.446;6.528;2023-04-01T02:16:19;2.60;;;0.60;;
27857;SDS011;16852;51.446;6.528;2023-04-01T02:18:36;1.58;;;0.60;;
27857;SDS011;16852;51.446;6.528;2023-04-01T02:20:38;1.30;;;0.50;;
27857;SDS011;16852;51.446;6.528;2023-04-01T02:22:41;2.72;;;0.60;;
27857;SDS011;16852;51.446;6.528;2023-04-01T02:24:46;2.17;;;0.60;;
27857;SDS011;16852;51.446;6.528;2023-04-01T02:26:52;2.53;;;0.52;;
27857;SDS011;16852;51.446;6.528;2023-04-01T02:28:53;2.15;;;0.47;;
27857;SDS011;16852;51.446;6.528;2023-04-01T02:30:56;1.70;;;0.57;;
27857;SDS011;16852;51.446;6.528;2023-04-01T02:33:00;1.15;;;0.52;;
27857;SDS011;16852;51.446;6.528;2023-04-01T02:35:01;1.70;;;0.88;;
27857;SDS011;16852;51.446;6.528;2023-04-01T02:37:05;3.05;;;0.43;;
27857;SDS011;16852;51.446;6.528;2023-04-01T02:39:07;0.98;;;0.40;;
27857;SDS011;16852;51.446;6.528;2023-04-01T02:41:08;1.73;;;0.57;;
27857;SDS011;16852;51.446;6.528;2023-04-01T02:43:10;0.77;;;0.57;;
27857;SDS011;16852;51.446;6.528;2023-04-01T02:45:11;2.55;;;0.40;;
27857;SDS011;16852;51.446;6.528;2023-04-01T02:47:12;1.08;;;0.40;;
27857;SDS011;16852;51.446;6.528;2023-04-01T02:49:13;0.77;;;0.43;;
27857;SDS011;16852;51.446;6.528;2023-04-01T02:51:13;0.77;;;0.40;;
27857;SDS011;16852;51.446;6.528;2023-04-01T02:53:14;1.90;;;0.43;;
27857;SDS011;16852;51.446;6.528;2023-04-01T02:55:15;0.93;;;0.52;;
27857;SDS011;16852;51.446;6.528;2023-04-01T02:57:16;0.40;;;0.30;;
27857;SDS011;16852;51.446;6.528;2023-04-01T02:59:16;1.65;;;0.55;;
27857;SDS011;16852;51.446;6.528;2023-04-01T03:01:17;0.80;;;0.50;;
27857;SDS011;16852;51.446;6.528;2023-04-01T03:03:18;1.65;;;0.43;;
27857;SDS011;16852;51.446;6.528;2023-04-01T03:05:19;0.55;;;0.30;;
27857;SDS011;16852;51.446;6.528;2023-04-01T03:07:20;0.63;;;0.40;;
27857;SDS011;16852;51.446;6.528;2023-04-01T03:09:20;1.58;;;0.70;;
27857;SDS011;16852;51.446;6.528;2023-04-01T03:11:21;1.88;;;0.50;;
27857;SDS011;16852;51.446;6.528;2023-04-01T03:13:22;1.65;;;0.52;;
27857;SDS011;16852;51.446;6.528;2023-04-01T03:15:22;1.50;;;0.68;;
27857;SDS011;16852;51.446;6.528;2023-04-01T03:17:23;2.10;;;0.52;;
27857;SDS011;16852;51.446;6.528;2023-04-01T03:19:23;2.17;;;0.75;;
27857;SDS011;16852;51.446;6.528;2023-04-01T03:21:24;1.83;;;0.68;;
27857;SDS011;16852;51.446;6.528;2023-04-01T03:23:25;1.95;;;0.68;;
27857;SDS011;16852;51.446;6.528;2023-04-01T03:25:25;5.55;;;0.80;;
27857;SDS011;16852;51.446;6.528;2023-04-01T03:29:28;1.17;;;0.63;;
27857;SDS011;16852;51.446;6.528;2023-04-01T03:31:29;2.28;;;0.70;;
27857;SDS011;16852;51.446;6.528;2023-04-01T03:33:30;2.90;;;0.60;;
27857;SDS011;16852;51.446;6.528;2023-04-01T03:35:31;1.20;;;0.50;;
27857;SDS011;16852;51.446;6.528;2023-04-01T03:37:32;0.85;;;0.70;;
27857;SDS011;16852;51.446;6.528;2023-04-01T03:39:32;2.25;;;0.88;;
27857;SDS011;16852;51.446;6.528;2023-04-01T03:41:36;1.90;;;0.73;;
27857;SDS011;16852;51.446;6.528;2023-04-01T03:43:37;0.80;;;0.57;;
27857;SDS011;16852;51.446;6.528;2023-04-01T03:45:44;2.08;;;0.55;;
27857;SDS011;16852;51.446;6.528;2023-04-01T03:47:46;1.15;;;0.70;;
27857;SDS011;16852;51.446;6.528;2023-04-01T03:49:46;0.88;;;0.57;;
27857;SDS011;16852;51.446;6.528;2023-04-01T03:51:47;1.73;;;0.77;;
27857;SDS011;16852;51.446;6.528;2023-04-01T03:53:48;0.98;;;0.60;;
27857;SDS011;16852;51.446;6.528;2023-04-01T03:55:49;2.95;;;0.80;;
27857;SDS011;16852;51.446;6.528;2023-04-01T03:57:51;1.40;;;0.57;;
27857;SDS011;16852;51.446;6.528;2023-04-01T03:59:51;1.02;;;0.70;;
27857;SDS011;16852;51.446;6.528;2023-04-01T04:01:52;0.68;;;0.68;;
27857;SDS011;16852;51.446;6.528;2023-04-01T04:03:52;1.10;;;0.50;;
27857;SDS011;16852;51.446;6.528;2023-04-01T04:05:53;2.88;;;0.70;;
27857;SDS011;16852;51.446;6.528;2023-04-01T04:07:55;1.60;;;0.82;;
27857;SDS011;16852;51.446;6.528;2023-04-01T04:09:56;1.00;;;0.60;;
27857;SDS011;16852;51.446;6.528;2023-04-01T04:11:56;1.33;;;0.88;;
27857;SDS011;16852;51.446;6.528;2023-04-01T04:13:57;1.10;;;0.65;;
27857;SDS011;16852;51.446;6.528;2023-04-01T04:15:58;0.93;;;0.70;;
27857;SDS011;16852;51.446;6.528;2023-04-01T04:17:59;2.17;;;1.00;;
27857;SDS011;16852;51.446;6.528;2023-04-01T04:19:59;1.20;;;0.70;;
27857;SDS011;16852;51.446;6.528;2023-04-01T04:22:00;1.48;;;0.70;;
27857;SDS011;16852;51.446;6.528;2023-04-01T04:24:01;0.98;;;0.63;;
27857;SDS011;16852;51.446;6.528;2023-04-01T04:26:04;1.63;;;0.73;;
27857;SDS011;16852;51.446;6.528;2023-04-01T04:28:06;1.52;;;0.75;;
27857;SDS011;16852;51.446;6.528;2023-04-01T04:30:07;0.82;;;0.60;;
27857;SDS011;16852;51.446;6.528;2023-04-01T04:32:08;2.33;;;0.80;;
27857;SDS011;16852;51.446;6.528;2023-04-01T04:34:10;1.77;;;0.90;;
27857;SDS011;16852;51.446;6.528;2023-04-01T04:36:11;2.08;;;0.77;;
27857;SDS011;16852;51.446;6.528;2023-04-01T04:38:12;0.98;;;0.60;;
27857;SDS011;16852;51.446;6.528;2023-04-01T04:40:12;1.33;;;0.73;;
27857;SDS011;16852;51.446;6.528;2023-04-01T04:42:13;2.17;;;0.73;;
27857;SDS011;16852;51.446;6.528;2023-04-01T04:44:13;1.50;;;0.90;;
27857;SDS011;16852;51.446;6.528;2023-04-01T04:46:14;1.10;;;0.82;;
27857;SDS011;16852;51.446;6.528;2023-04-01T04:48:15;0.65;;;0.65;;
27857;SDS011;16852;51.446;6.528;2023-04-01T04:50:18;1.50;;;0.80;;
27857;SDS011;16852;51.446;6.528;2023-04-01T04:52:19;1.92;;;1.02;;
27857;SDS011;16852;51.446;6.528;2023-04-01T04:54:20;1.33;;;1.10;;
27857;SDS011;16852;51.446;6.528;2023-04-01T04:56:21;1.85;;;0.95;;
27857;SDS011;16852;51.446;6.528;2023-04-01T04:58:22;1.33;;;0.90;;
27857;SDS011;16852;51.446;6.528;2023-04-01T05:00:23;0.88;;;0.70;;
27857;SDS011;16852;51.446;6.528;2023-04-01T05:02:23;0.55;;;0.55;;
27857;SDS011;16852;51.446;6.528;2023-04-01T05:04:24;1.40;;;0.93;;
27857;SDS011;16852;51.446;6.528;2023-04-01T05:06:25;1.10;;;0.95;;
27857;SDS011;16852;51.446;6.528;2023-04-01T05:08:29;0.75;;;0.70;;
27857;SDS011;16852;51.446;6.528;2023-04-01T05:10:29;1.48;;;1.00;;
27857;SDS011;16852;51.446;6.528;2023-04-01T05:12:31;1.77;;;1.00;;
27857;SDS011;16852;51.446;6.528;2023-04-01T05:14:35;1.13;;;1.02;;
27857;SDS011;16852;51.446;6.528;2023-04-01T05:16:36;2.38;;;1.00;;
27857;SDS011;16852;51.446;6.528;2023-04-01T05:18:37;1.63;;;1.10;;
27857;SDS011;16852;51.446;6.528;2023-04-01T05:20:37;2.60;;;1.30;;
27857;SDS011;16852;51.446;6.528;2023-04-01T05:22:38;3.67;;;1.30;;
27857;SDS011;16852;51.446;6.528;2023-04-01T05:24:39;1.77;;;1.38;;
27857;SDS011;16852;51.446;6.528;2023-04-01T05:26:39;1.33;;;1.23;;
27857;SDS011;16852;51.446;6.528;2023-04-01T05:28:40;1.40;;;1.23;;
27857;SDS011;16852;51.446;6.528;2023-04-01T05:30:42;1.58;;;1.20;;
27857;SDS011;16852;51.446;6.528;2023-04-01T05:32:43;2.42;;;1.70;;
27857;SDS011;16852;51.446;6.528;2023-04-01T05:34:44;1.42;;;1.33;;
27857;SDS011;16852;51.446;6.528;2023-04-01T05:36:45;1.95;;;1.60;;
27857;SDS011;16852;51.446;6.528;2023-04-01T05:38:45;3.45;;;1.90;;
27857;SDS011;16852;51.446;6.528;2023-04-01T05:40:47;1.65;;;1.55;;
27857;SDS011;16852;51.446;6.528;2023-04-01T05:42:47;2.50;;;1.85;;
27857;SDS011;16852;51.446;6.528;2023-04-01T05:44:48;1.73;;;1.60;;
27857;SDS011;16852;51.446;6.528;2023-04-01T05:46:48;1.90;;;1.77;;
27857;SDS011;16852;51.446;6.528;2023-04-01T05:48:49;2.55;;;1.85;;
27857;SDS011;16852;51.446;6.528;2023-04-01T05:50:50;3.33;;;2.03;;
27857;SDS011;16852;51.446;6.528;2023-04-01T05:52:50;2.28;;;1.65;;
27857;SDS011;16852;51.446;6.528;2023-04-01T05:54:51;2.15;;;1.95;;
27857;SDS011;16852;51.446;6.528;2023-04-01T05:56:51;2.17;;;1.98;;
27857;SDS011;16852;51.446;6.528;2023-04-01T05:58:53;1.90;;;1.70;;
27857;SDS011;16852;51.446;6.528;2023-04-01T06:00:59;2.30;;;1.80;;
27857;SDS011;16852;51.446;6.528;2023-04-01T06:03:01;3.97;;;2.33;;
27857;SDS011;16852;51.446;6.528;2023-04-01T06:05:03;2.60;;;2.25;;
27857;SDS011;16852;51.446;6.528;2023-04-01T06:07:12;2.30;;;2.10;;
27857;SDS011;16852;51.446;6.528;2023-04-01T06:11:19;2.08;;;1.85;;
27857;SDS011;16852;51.446;6.528;2023-04-01T06:13:52;2.35;;;1.80;;
27857;SDS011;16852;51.446;6.528;2023-04-01T06:23:01;2.83;;;2.03;;
27857;SDS011;16852;51.446;6.528;2023-04-01T06:32:22;2.15;;;1.95;;
27857;SDS011;16852;51.446;6.528;2023-04-01T06:36:59;2.08;;;1.88;;
27857;SDS011;16852;51.446;6.528;2023-04-01T06:55:36;3.70;;;2.22;;
27857;SDS011;16852;51.446;6.528;2023-04-01T06:57:43;2.85;;;2.40;;
27857;SDS011;16852;51.446;6.528;2023-04-01T06:59:47;1.98;;;1.88;;
27857;SDS011;16852;51.446;6.528;2023-04-01T07:01:52;2.67;;;2.33;;
27857;SDS011;16852;51.446;6.528;2023-04-01T07:03:56;2.58;;;2.38;;
27857;SDS011;16852;51.446;6.528;2023-04-01T07:06:04;2.42;;;2.20;;
27857;SDS011;16852;51.446;6.528;2023-04-01T07:08:26;2.50;;;2.20;;
27857;SDS011;16852;51.446;6.528;2023-04-01T07:12:51;2.88;;;2.15;;
27857;SDS011;16852;51.446;6.528;2023-04-01T07:14:56;1.90;;;1.70;;
27857;SDS011;16852;51.446;6.528;2023-04-01T07:17:04;2.17;;;2.00;;
27857;SDS011;16852;51.446;6.528;2023-04-01T07:21:30;2.30;;;2.10;;
27857;SDS011;16852;51.446;6.528;2023-04-01T07:23:39;2.13;;;1.92;;
27857;SDS011;16852;51.446;6.528;2023-04-01T07:25:45;2.65;;;2.30;;
27857;SDS011;16852;51.446;6.528;2023-04-01T07:27:52;3.28;;;2.00;;
27857;SDS011;16852;51.446;6.528;2023-04-01T07:29:57;2.53;;;2.28;;
27857;SDS011;16852;51.446;6.528;2023-04-01T07:32:13;2.55;;;2.35;;
27857;SDS011;16852;51.446;6.528;2023-04-01T07:34:28;2.47;;;2.08;;
27857;SDS011;16852;51.446;6.528;2023-04-01T07:37:00;3.08;;;2.78;;
27857;SDS011;16852;51.446;6.528;2023-04-01T07:46:03;4.30;;;3.00;;
27857;SDS011;16852;51.446;6.528;2023-04-01T07:48:32;4.82;;;3.30;;
27857;SDS011;16852;51.446;6.528;2023-04-01T07:50:38;3.70;;;3.28;;
27857;SDS011;16852;51.446;6.528;2023-04-01T07:55:32;3.70;;;3.00;;
27857;SDS011;16852;51.446;6.528;2023-04-01T08:05:08;3.30;;;2.95;;
27857;SDS011;16852;51.446;6.528;2023-04-01T08:06:58;4.82;;;3.30;;
27857;SDS011;16852;51.446;6.528;2023-04-01T08:11:46;2.95;;;2.53;;
27857;SDS011;16852;51.446;6.528;2023-04-01T08:16:23;4.05;;;2.80;;
27857;SDS011;16852;51.446;6.528;2023-04-01T08:20:58;3.08;;;2.78;;
27857;SDS011;16852;51.446;6.528;2023-04-01T08:25:30;2.78;;;2.50;;
27857;SDS011;16852;51.446;6.528;2023-04-01T08:27:35;3.78;;;3.17;;
27857;SDS011;16852;51.446;6.528;2023-04-01T08:29:57;5.38;;;2.85;;
27857;SDS011;16852;51.446;6.528;2023-04-01T08:34:11;3.78;;;3.05;;
27857;SDS011;16852;51.446;6.528;2023-04-01T08:36:22;3.75;;;3.08;;
27857;SDS011;16852;51.446;6.528;2023-04-01T08:38:43;3.40;;;3.10;;
27857;SDS011;16852;51.446;6.528;2023-04-01T08:40:56;4.45;;;3.53;;
27857;SDS011;16852;51.446;6.528;2023-04-01T08:43:15;4.90;;;3.38;;
27857;SDS011;16852;51.446;6.528;2023-04-01T08:52:30;4.25;;;3.78;;
27857;SDS011;16852;51.446;6.528;2023-04-01T08:54:44;4.78;;;3.58;;
27857;SDS011;16852;51.446;6.528;2023-04-01T08:59:22;4.68;;;4.22;;
27857;SDS011;16852;51.446;6.528;2023-04-01T09:01:58;5.25;;;4.60;;
27857;SDS011;16852;51.446;6.528;2023-04-01T09:04:25;5.25;;;4.75;;
27857;SDS011;16852;51.446;6.528;2023-04-01T09:11:30;5.65;;;4.55;;
27857;SDS011;16852;51.446;6.528;2023-04-01T09:16:12;6.22;;;4.72;;
27857;SDS011;16852;51.446;6.528;2023-04-01T09:18:38;5.57;;;4.75;;
27857;SDS011;16852;51.446;6.528;2023-04-01T09:29:50;7.88;;;6.20;;
27857;SDS011;16852;51.446;6.528;2023-04-01T09:32:09;7.90;;;5.25;;
27857;SDS011;16852;51.446;6.528;2023-04-01T09:37:25;8.85;;;6.25;;
27857;SDS011;16852;51.446;6.528;2023-04-01T09:40:02;10.90;;;6.35;;
27857;SDS011;16852;51.446;6.528;2023-04-01T09:44:37;9.55;;;6.80;;
27857;SDS011;16852;51.446;6.528;2023-04-01T09:46:46;11.07;;;6.55;;
27857;SDS011;16852;51.446;6.528;2023-04-01T09:49:02;10.20;;;6.88;;
27857;SDS011;16852;51.446;6.528;2023-04-01T09:54:01;9.07;;;6.57;;
27857;SDS011;16852;51.446;6.528;2023-04-01T10:02:48;8.70;;;6.35;;
27857;SDS011;16852;51.446;6.528;2023-04-01T10:05:27;8.90;;;6.30;;
27857;SDS011;16852;51.446;6.528;2023-04-01T10:08:09;10.43;;;6.68;;
27857;SDS011;16852;51.446;6.528;2023-04-01T10:23:45;8.85;;;6.10;;
27857;SDS011;16852;51.446;6.528;2023-04-01T10:38:13;13.55;;;6.57;;
27857;SDS011;16852;51.446;6.528;2023-04-01T10:43:25;10.60;;;6.97;;
27857;SDS011;16852;51.446;6.528;2023-04-01T10:53:15;9.60;;;6.88;;
27857;SDS011;16852;51.446;6.528;2023-04-01T11:05:02;12.55;;;6.90;;
27857;SDS011;16852;51.446;6.528;2023-04-01T11:07:41;9.68;;;7.05;;
27857;SDS011;16852;51.446;6.528;2023-04-01T11:21:37;9.52;;;6.20;;
27857;SDS011;16852;51.446;6.528;2023-04-01T11:26:28;9.02;;;5.93;;
27857;SDS011;16852;51.446;6.528;2023-04-01T11:31:23;12.35;;;6.30;;
27857;SDS011;16852;51.446;6.528;2023-04-01T11:36:16;7.88;;;5.13;;
27857;SDS011;16852;51.446;6.528;2023-04-01T11:38:24;7.55;;;4.72;;
27857;SDS011;16852;51.446;6.528;2023-04-01T11:40:31;7.43;;;4.72;;
27857;SDS011;16852;51.446;6.528;2023-04-01T11:42:49;6.20;;;4.80;;
27857;SDS011;16852;51.446;6.528;2023-04-01T11:45:21;6.70;;;4.70;;
27857;SDS011;16852;51.446;6.528;2023-04-01T11:51:09;7.43;;;4.38;;
27857;SDS011;16852;51.446;6.528;2023-04-01T11:58:06;6.15;;;4.25;;
27857;SDS011;16852;51.446;6.528;2023-04-01T12:03:17;7.50;;;4.55;;
27857;SDS011;16852;51.446;6.528;2023-04-01T12:05:58;6.10;;;4.45;;
27857;SDS011;16852;51.446;6.528;2023-04-01T12:10:18;6.10;;;4.97;;
27857;SDS011;16852;51.446;6.528;2023-04-01T12:12:43;6.90;;;5.50;;
27857;SDS011;16852;51.446;6.528;2023-04-01T12:20:20;12.50;;;5.35;;
27857;SDS011;16852;51.446;6.528;2023-04-01T12:26:56;9.50;;;5.68;;
27857;SDS011;16852;51.446;6.528;2023-04-01T12:29:44;7.43;;;4.95;;
27857;SDS011;16852;51.446;6.528;2023-04-01T12:36:31;6.43;;;5.05;;
27857;SDS011;16852;51.446;6.528;2023-04-01T12:38:51;6.63;;;4.80;;
27857;SDS011;16852;51.446;6.528;2023-04-01T12:43:28;7.88;;;5.57;;
27857;SDS011;16852;51.446;6.528;2023-04-01T12:48:14;9.63;;;5.60;;
27857;SDS011;16852;51.446;6.528;2023-04-01T12:50:26;7.50;;;5.40;;
27857;SDS011;16852;51.446;6.528;2023-04-01T12:57:45;8.68;;;5.75;;
27857;SDS011;16852;51.446;6.528;2023-04-01T13:02:22;7.38;;;5.50;;
27857;SDS011;16852;51.446;6.528;2023-04-01T13:07:12;7.90;;;5.80;;
27857;SDS011;16852;51.446;6.528;2023-04-01T13:16:31;7.35;;;5.57;;
27857;SDS011;16852;51.446;6.528;2023-04-01T13:19:03;7.30;;;5.43;;
27857;SDS011;16852;51.446;6.528;2023-04-01T13:26:29;8.07;;;5.97;;
27857;SDS011;16852;51.446;6.528;2023-04-01T13:28:17;9.73;;;5.18;;
27857;SDS011;16852;51.446;6.528;2023-04-01T13:32:44;7.20;;;5.80;;
27857;SDS011;16852;51.446;6.528;2023-04-01T13:37:18;6.67;;;5.63;;
27857;SDS011;16852;51.446;6.528;2023-04-01T13:39:34;7.55;;;5.72;;
27857;SDS011;16852;51.446;6.528;2023-04-01T13:41:52;7.00;;;5.90;;
27857;SDS011;16852;51.446;6.528;2023-04-01T13:44:14;10.45;;;6.15;;
27857;SDS011;16852;51.446;6.528;2023-04-01T13:53:25;6.07;;;4.60;;
27857;SDS011;16852;51.446;6.528;2023-04-01T14:00:23;8.30;;;4.93;;
27857;SDS011;16852;51.446;6.528;2023-04-01T14:02:40;6.00;;;4.80;;
27857;SDS011;16852;51.446;6.528;2023-04-01T14:04:50;7.57;;;4.43;;
27857;SDS011;16852;51.446;6.528;2023-04-01T14:12:01;6.40;;;4.43;;
27857;SDS011;16852;51.446;6.528;2023-04-01T14:30:30;5.93;;;4.13;;
27857;SDS011;16852;51.446;6.528;2023-04-01T14:39:49;5.18;;;3.60;;
27857;SDS011;16852;51.446;6.528;2023-04-01T14:49:02;4.38;;;3.58;;
27857;SDS011;16852;51.446;6.528;2023-04-01T14:51:19;3.72;;;3.28;;
27857;SDS011;16852;51.446;6.528;2023-04-01T14:57:42;3.30;;;3.00;;
27857;SDS011;16852;51.446;6.528;2023-04-01T15:00:17;4.53;;;4.03;;
27857;SDS011;16852;51.446;6.528;2023-04-01T15:02:41;4.07;;;3.20;;
27857;SDS011;16852;51.446;6.528;2023-04-01T15:07:35;4.15;;;3.30;;
27857;SDS011;16852;51.446;6.528;2023-04-01T15:12:19;3.88;;;3.22;;
27857;SDS011;16852;51.446;6.528;2023-04-01T15:17:02;3.10;;;2.67;;
27857;SDS011;16852;51.446;6.528;2023-04-01T15:21:41;2.78;;;2.58;;
27857;SDS011;16852;51.446;6.528;2023-04-01T15:26:11;3.63;;;2.72;;
27857;SDS011;16852;51.446;6.528;2023-04-01T15:33:13;4.25;;;2.85;;
27857;SDS011;16852;51.446;6.528;2023-04-01T15:35:39;2.70;;;2.40;;
27857;SDS011;16852;51.446;6.528;2023-04-01T15:38:03;6.82;;;3.20;;
27857;SDS011;16852;51.446;6.528;2023-04-01T15:40:16;4.40;;;3.40;;
27857;SDS011;16852;51.446;6.528;2023-04-01T15:47:13;3.20;;;2.90;;
27857;SDS011;16852;51.446;6.528;2023-04-01T15:49:34;2.47;;;2.28;;
27857;SDS011;16852;51.446;6.528;2023-04-01T15:51:48;3.75;;;3.30;;
27857;SDS011;16852;51.446;6.528;2023-04-01T16:03:17;3.83;;;3.17;;
27857;SDS011;16852;51.446;6.528;2023-04-01T16:05:33;4.60;;;2.60;;
27857;SDS011;16852;51.446;6.528;2023-04-01T16:20:13;3.90;;;3.25;;
27857;SDS011;16852;51.446;6.528;2023-04-01T16:24:10;8.55;;;6.60;;
27857;SDS011;16852;51.446;6.528;2023-04-01T16:29:10;5.47;;;4.43;;
27857;SDS011;16852;51.446;6.528;2023-04-01T16:34:02;4.00;;;3.58;;
27857;SDS011;16852;51.446;6.528;2023-04-01T16:36:13;5.28;;;4.55;;
27857;SDS011;16852;51.446;6.528;2023-04-01T16:38:31;5.32;;;4.53;;
27857;SDS011;16852;51.446;6.528;2023-04-01T16:40:46;4.50;;;3.95;;
27857;SDS011;16852;51.446;6.528;2023-04-01T16:43:12;4.10;;;3.70;;
27857;SDS011;16852;51.446;6.528;2023-04-01T16:45:21;6.85;;;4.57;;
27857;SDS011;16852;51.446;6.528;2023-04-01T16:47:50;6.22;;;4.10;;
27857;SDS011;16852;51.446;6.528;2023-04-01T16:49:58;4.47;;;4.05;;
27857;SDS011;16852;51.446;6.528;2023-04-01T16:52:14;4.05;;;3.65;;
27857;SDS011;16852;51.446;6.528;2023-04-01T16:54:28;5.35;;;4.20;;
27857;SDS011;16852;51.446;6.528;2023-04-01T16:56:36;4.63;;;3.93;;
27857;SDS011;16852;51.446;6.528;2023-04-01T16:58:57;4.47;;;4.07;;
27857;SDS011;16852;51.446;6.528;2023-04-01T17:01:07;5.00;;;4.22;;
27857;SDS011;16852;51.446;6.528;2023-04-01T17:03:13;6.57;;;4.60;;
27857;SDS011;16852;51.446;6.528;2023-04-01T17:08:02;4.30;;;3.83;;
27857;SDS011;16852;51.446;6.528;2023-04-01T17:12:45;4.50;;;3.88;;
27857;SDS011;16852;51.446;6.528;2023-04-01T17:15:10;4.43;;;4.03;;
27857;SDS011;16852;51.446;6.528;2023-04-01T17:17:34;4.85;;;4.28;;
27857;SDS011;16852;51.446;6.528;2023-04-01T17:19:54;5.78;;;4.03;;
27857;SDS011;16852;51.446;6.528;2023-04-01T17:22:21;5.32;;;4.10;;
27857;SDS011;16852;51.446;6.528;2023-04-01T17:26:40;4.75;;;4.15;;
27857;SDS011;16852;51.446;6.528;2023-04-01T17:28:50;5.32;;;4.57;;
27857;SDS011;16852;51.446;6.528;2023-04-01T17:38:24;5.00;;;4.18;;
27857;SDS011;16852;51.446;6.528;2023-04-01T17:40:52;5.75;;;4.65;;
27857;SDS011;16852;51.446;6.528;2023-04-01T17:43:02;6.00;;;4.85;;
27857;SDS011;16852;51.446;6.528;2023-04-01T17:49:36;6.47;;;5.47;;
27857;SDS011;16852;51.446;6.528;2023-04-01T17:52:00;8.25;;;5.60;;
27857;SDS011;16852;51.446;6.528;2023-04-01T17:54:24;7.80;;;5.75;;
27857;SDS011;16852;51.446;6.528;2023-04-01T17:58:44;19.45;;;12.82;;
27857;SDS011;16852;51.446;6.528;2023-04-01T18:06:10;6.88;;;5.68;;
27857;SDS011;16852;51.446;6.528;2023-04-01T18:08:36;6.82;;;5.55;;
27857;SDS011;16852;51.446;6.528;2023-04-01T18:13:08;6.22;;;4.97;;
27857;SDS011;16852;51.446;6.528;2023-04-01T18:15:27;6.00;;;5.25;;
27857;SDS011;16852;51.446;6.528;2023-04-01T18:20:25;7.03;;;5.20;;
27857;SDS011;16852;51.446;6.528;2023-04-01T18:22:44;5.40;;;4.80;;
27857;SDS011;16852;51.446;6.528;2023-04-01T18:24:59;6.25;;;5.00;;
27857;SDS011;16852;51.446;6.528;2023-04-01T18:27:18;6.07;;;5.47;;
27857;SDS011;16852;51.446;6.528;2023-04-01T18:29:31;6.22;;;5.13;;
27857;SDS011;16852;51.446;6.528;2023-04-01T18:31:54;6.20;;;5.57;;
27857;SDS011;16852;51.446;6.528;2023-04-01T18:34:20;8.80;;;5.28;;
27857;SDS011;16852;51.446;6.528;2023-04-01T18:41:20;6.07;;;4.95;;
27857;SDS011;16852;51.446;6.528;2023-04-01T18:45:59;4.88;;;4.38;;
27857;SDS011;16852;51.446;6.528;2023-04-01T18:48:06;6.53;;;4.97;;
27857;SDS011;16852;51.446;6.528;2023-04-01T18:50:36;5.63;;;5.03;;
27857;SDS011;16852;51.446;6.528;2023-04-01T18:52:41;6.70;;;5.60;;
27857;SDS011;16852;51.446;6.528;2023-04-01T18:57:15;5.50;;;4.60;;
27857;SDS011;16852;51.446;6.528;2023-04-01T18:59:22;5.72;;;3.97;;
27857;SDS011;16852;51.446;6.528;2023-04-01T19:01:36;7.05;;;4.57;;
27857;SDS011;16852;51.446;6.528;2023-04-01T19:04:33;4.90;;;3.95;;
27857;SDS011;16852;51.446;6.528;2023-04-01T19:06:46;4.63;;;3.35;;
27857;SDS011;16852;51.446;6.528;2023-04-01T19:08:54;4.47;;;3.30;;
27857;SDS011;16852;51.446;6.528;2023-04-01T19:13:27;2.40;;;2.05;;
27857;SDS011;16852;51.446;6.528;2023-04-01T19:15:34;3.95;;;2.45;;
27857;SDS011;16852;51.446;6.528;2023-04-01T19:20:08;2.95;;;1.92;;
27857;SDS011;16852;51.446;6.528;2023-04-01T19:22:23;3.55;;;1.83;;
27857;SDS011;16852;51.446;6.528;2023-04-01T19:26:56;2.75;;;1.70;;
27857;SDS011;16852;51.446;6.528;2023-04-01T19:36:11;2.20;;;1.55;;
27857;SDS011;16852;51.446;6.528;2023-04-01T19:38:28;2.00;;;1.52;;
27857;SDS011;16852;51.446;6.528;2023-04-01T19:40:57;4.63;;;2.00;;
27857;SDS011;16852;51.446;6.528;2023-04-01T19:50:38;4.68;;;2.17;;
27857;SDS011;16852;51.446;6.528;2023-04-01T19:52:46;4.18;;;2.08;;
27857;SDS011;16852;51.446;6.528;2023-04-01T19:57:44;2.80;;;2.13;;
27857;SDS011;16852;51.446;6.528;2023-04-01T20:00:52;2.25;;;1.77;;